createdAt,value
2023-04-04T00:01:04.155Z,7.65
2023-04-04T00:03:35.066Z,7.05
2023-04-04T00:06:08.779Z,8.05
2023-04-04T00:08:39.624Z,6.28
2023-04-04T00:11:10.492Z,5.80
2023-04-04T00:13:41.904Z,7.32
2023-04-04T00:16:13.820Z,8.27
2023-04-04T00:18:44.642Z,7.30
2023-04-04T00:21:18.353Z,8.93
2023-04-04T00:23:49.118Z,6.03
2023-04-04T00:26:20.215Z,7.40
2023-04-04T00:28:51.129Z,7.90
2023-04-04T00:31:22.042Z,9.00
2023-04-04T00:33:52.977Z,10.32
2023-04-04T00:36:26.530Z,6.80
2023-04-04T00:38:57.485Z,7.78
2023-04-04T00:41:29.286Z,8.70
2023-04-04T00:44:00.277Z,6.55
2023-04-04T00:46:31.624Z,6.38
2023-04-04T00:49:02.450Z,7.32
2023-04-04T00:51:35.961Z,5.82
2023-04-04T00:54:07.132Z,8.07
2023-04-04T00:56:41.295Z,6.07
2023-04-04T00:59:12.251Z,7.85
2023-04-04T01:01:43.163Z,7.05
2023-04-04T01:04:14.071Z,6.80
2023-04-04T01:06:47.729Z,7.07
2023-04-04T01:09:18.786Z,7.00
2023-04-04T01:11:50.216Z,9.23
2023-04-04T01:14:21.538Z,9.25
2023-04-04T01:16:53.684Z,6.65
2023-04-04T01:19:33.553Z,6.07
2023-04-04T01:22:11.900Z,8.52
2023-04-04T01:24:45.418Z,7.07
2023-04-04T01:27:19.093Z,7.28
2023-04-04T01:29:58.319Z,6.18
2023-04-04T01:32:37.028Z,6.88
2023-04-04T01:35:21.506Z,7.63
2023-04-04T01:38:01.150Z,9.50
2023-04-04T01:40:37.966Z,8.23
2023-04-04T01:43:13.264Z,7.72
2023-04-04T01:45:46.530Z,7.72
2023-04-04T01:48:19.149Z,8.73
2023-04-04T01:50:54.365Z,11.48
2023-04-04T01:53:26.111Z,9.27
2023-04-04T01:55:57.498Z,6.47
2023-04-04T01:58:33.014Z,6.57
2023-04-04T02:01:04.491Z,7.78
2023-04-04T02:03:35.361Z,9.32
2023-04-04T02:06:06.297Z,9.68
2023-04-04T02:08:38.678Z,8.77
2023-04-04T02:11:09.829Z,7.68
2023-04-04T02:13:44.668Z,7.90
2023-04-04T02:16:19.969Z,8.23
2023-04-04T02:18:50.989Z,7.60
2023-04-04T02:21:22.308Z,8.55
2023-04-04T02:23:53.496Z,7.75
2023-04-04T02:26:24.848Z,8.40
2023-04-04T02:28:58.248Z,6.70
2023-04-04T02:31:29.118Z,10.20
2023-04-04T02:34:00.113Z,7.57
2023-04-04T02:36:31.021Z,6.38
2023-04-04T02:39:02.748Z,7.47
2023-04-04T02:41:34.993Z,7.00
2023-04-04T02:44:10.153Z,7.70
2023-04-04T02:46:42.809Z,8.80
2023-04-04T02:49:18.540Z,7.93
2023-04-04T02:51:52.588Z,8.52
2023-04-04T02:54:24.021Z,9.18
2023-04-04T02:56:55.352Z,8.23
2023-04-04T02:59:29.305Z,8.30
2023-04-04T03:02:00.316Z,9.43
2023-04-04T03:04:32.590Z,9.48
2023-04-04T03:07:04.301Z,7.95
2023-04-04T03:09:35.202Z,9.88
2023-04-04T03:12:06.049Z,7.20
2023-04-04T03:14:39.629Z,8.38
2023-04-04T03:17:11.087Z,7.57
2023-04-04T03:19:42.177Z,8.40
2023-04-04T03:22:13.084Z,8.02
2023-04-04T03:24:43.909Z,8.07
2023-04-04T03:27:14.748Z,8.63
2023-04-04T03:29:48.150Z,6.43
2023-04-04T03:32:19.226Z,6.40
2023-04-04T03:34:50.044Z,7.65
2023-04-04T03:37:21.209Z,6.45
2023-04-04T03:39:52.862Z,7.40
2023-04-04T03:42:24.179Z,7.90
2023-04-04T03:44:58.344Z,7.07
2023-04-04T03:47:34.983Z,8.18
2023-04-04T03:50:05.920Z,8.40
2023-04-04T03:52:41.899Z,9.40
2023-04-04T03:55:13.367Z,7.78
2023-04-04T03:57:44.224Z,7.97
2023-04-04T04:00:20.933Z,9.27
2023-04-04T04:02:51.964Z,10.68
2023-04-04T04:05:23.432Z,10.18
2023-04-04T04:07:54.305Z,8.10
2023-04-04T04:10:25.096Z,7.93
2023-04-04T04:12:56.151Z,7.05
2023-04-04T04:15:29.664Z,8.10
2023-04-04T04:18:02.523Z,8.93
2023-04-04T04:20:33.450Z,9.48
2023-04-04T04:23:04.332Z,6.68
2023-04-04T04:25:35.261Z,7.30
2023-04-04T04:28:19.456Z,9.95
2023-04-04T04:30:54.321Z,7.35
2023-04-04T04:33:32.580Z,6.80
2023-04-04T04:36:08.836Z,9.77
2023-04-04T04:38:59.920Z,7.97
2023-04-04T04:41:33.335Z,9.65
2023-04-04T04:44:06.306Z,11.27
2023-04-04T04:46:39.898Z,11.05
2023-04-04T04:49:17.246Z,6.93
2023-04-04T04:51:49.704Z,8.18
2023-04-04T04:54:22.255Z,8.50
2023-04-04T04:56:58.408Z,7.13
2023-04-04T04:59:29.907Z,7.25
2023-04-04T05:02:03.421Z,9.18
2023-04-04T05:04:41.425Z,7.95
2023-04-04T05:07:12.575Z,9.85
2023-04-04T05:09:57.592Z,7.75
2023-04-04T05:13:28.618Z,7.68
2023-04-04T05:16:05.062Z,9.32
2023-04-04T05:18:39.411Z,10.07
2023-04-04T05:21:13.505Z,8.70
2023-04-04T05:23:45.372Z,7.93
2023-04-04T05:26:17.293Z,10.35
2023-04-04T05:28:50.612Z,8.95
2023-04-04T05:31:22.827Z,11.68
2023-04-04T05:33:58.121Z,10.48
2023-04-04T05:36:35.694Z,10.38
2023-04-04T05:39:09.300Z,9.00
2023-04-04T05:41:46.850Z,11.57
2023-04-04T05:44:20.291Z,11.18
2023-04-04T05:46:50.865Z,18.60
2023-04-04T05:49:25.229Z,11.00
2023-04-04T05:52:01.500Z,13.95
2023-04-04T05:54:33.275Z,11.57
2023-04-04T05:57:08.621Z,12.57
2023-04-04T05:59:43.627Z,45.58
2023-04-04T06:02:17.768Z,62.63
2023-04-04T06:04:56.293Z,16.98
2023-04-04T06:07:46.837Z,11.65
2023-04-04T06:10:17.156Z,15.30
2023-04-04T06:12:47.602Z,11.48
2023-04-04T06:15:18.176Z,14.32
2023-04-04T06:17:48.654Z,11.02
2023-04-04T06:20:24.288Z,13.00
2023-04-04T06:22:57.550Z,11.77
2023-04-04T06:25:29.777Z,12.45
2023-04-04T06:28:03.740Z,11.00
2023-04-04T06:30:38.341Z,13.85
2023-04-04T06:33:10.759Z,11.63
2023-04-04T06:35:48.455Z,13.10
2023-04-04T06:38:19.903Z,14.38
2023-04-04T06:40:50.545Z,14.95
2023-04-04T06:43:20.952Z,15.98
2023-04-04T06:45:52.386Z,12.98
2023-04-04T06:48:23.896Z,11.85
2023-04-04T06:50:56.816Z,12.68
2023-04-04T06:53:28.572Z,13.85
2023-04-04T06:55:58.941Z,11.73
2023-04-04T06:58:29.254Z,11.88
2023-04-04T07:01:00.082Z,11.98
2023-04-04T07:03:31.074Z,12.15
2023-04-04T07:06:06.308Z,10.82
2023-04-04T07:08:37.273Z,11.63
2023-04-04T07:11:08.347Z,12.55
2023-04-04T07:13:38.940Z,10.48
2023-04-04T07:16:09.619Z,9.85
2023-04-04T07:18:39.870Z,11.07
2023-04-04T07:21:13.670Z,8.85
2023-04-04T07:23:43.981Z,10.77
2023-04-04T07:26:14.771Z,10.20
2023-04-04T07:28:45.204Z,10.38
2023-04-04T07:31:15.405Z,7.65
2023-04-04T07:33:45.696Z,9.15
2023-04-04T07:36:18.631Z,14.70
2023-04-04T07:38:49.134Z,8.43
2023-04-04T07:41:19.459Z,8.85
2023-04-04T07:43:49.769Z,11.50
2023-04-04T07:46:20.622Z,8.73
2023-04-04T07:48:51.139Z,9.50
2023-04-04T07:51:29.597Z,8.82
2023-04-04T07:54:00.334Z,7.65
2023-04-04T07:56:30.722Z,10.43
2023-04-04T07:59:01.077Z,9.15
2023-04-04T08:01:31.528Z,10.10
2023-04-04T08:04:02.278Z,7.93
2023-04-04T08:06:37.069Z,11.95
2023-04-04T08:09:07.501Z,7.40
2023-04-04T08:11:37.906Z,7.72
2023-04-04T08:14:12.054Z,9.05
2023-04-04T08:16:42.547Z,5.20
2023-04-04T08:19:13.211Z,7.35
2023-04-04T08:21:46.510Z,8.00
2023-04-04T08:24:16.907Z,8.95
2023-04-04T08:26:51.768Z,8.82
2023-04-04T08:29:29.192Z,6.60
2023-04-04T08:31:59.821Z,7.55
2023-04-04T08:34:30.211Z,8.20
2023-04-04T08:37:03.075Z,8.48
2023-04-04T08:39:33.521Z,8.77
2023-04-04T08:42:06.449Z,10.25
2023-04-04T08:44:37.666Z,8.23
2023-04-04T08:47:10.829Z,9.95
2023-04-04T08:49:46.108Z,7.68
2023-04-04T08:52:21.861Z,7.95
2023-04-04T08:54:53.888Z,4.93
2023-04-04T08:57:24.728Z,7.53
2023-04-04T08:59:55.270Z,7.25
2023-04-04T09:02:31.068Z,9.55
2023-04-04T09:05:06.700Z,6.78
2023-04-04T09:07:40.822Z,6.70
2023-04-04T09:10:13.399Z,4.75
2023-04-04T09:12:47.740Z,6.25
2023-04-04T09:15:18.205Z,6.35
2023-04-04T09:17:49.191Z,6.68
2023-04-04T09:20:41.634Z,7.10
2023-04-04T09:23:16.180Z,7.53
2023-04-04T09:30:55.551Z,5.07
2023-04-04T09:33:27.255Z,5.95
2023-04-04T09:36:01.619Z,5.60
2023-04-04T09:38:34.671Z,5.00
2023-04-04T09:41:05.083Z,5.47
2023-04-04T09:43:36.012Z,5.13
2023-04-04T09:46:06.924Z,4.20
2023-04-04T09:48:38.116Z,6.32
2023-04-04T09:51:09.596Z,5.47
2023-04-04T09:53:42.891Z,7.97
2023-04-04T09:56:14.058Z,3.72
2023-04-04T09:58:56.630Z,5.03
2023-04-04T10:01:33.746Z,4.93
2023-04-04T10:04:06.931Z,3.97
2023-04-04T10:06:39.944Z,6.28
2023-04-04T10:09:14.112Z,4.93
2023-04-04T10:11:44.472Z,5.68
2023-04-04T10:14:14.843Z,5.90
2023-04-04T10:16:48.481Z,3.85
2023-04-04T10:19:20.155Z,4.25
2023-04-04T10:21:51.869Z,7.25
2023-04-04T10:24:25.352Z,5.32
2023-04-04T10:26:56.360Z,5.05
2023-04-04T10:29:30.419Z,4.95
2023-04-04T10:32:05.225Z,4.93
2023-04-04T10:34:41.511Z,5.30
2023-04-04T10:37:15.947Z,6.93
2023-04-04T10:39:54.934Z,6.63
2023-04-04T10:42:27.122Z,5.05
2023-04-04T10:45:01.586Z,5.60
2023-04-04T10:47:40.694Z,5.28
2023-04-04T10:50:12.758Z,7.78
2023-04-04T10:52:46.416Z,6.18
2023-04-04T10:55:19.964Z,6.43
2023-04-04T10:57:52.947Z,5.55
2023-04-04T11:00:24.489Z,5.95
2023-04-04T11:02:59.685Z,5.95
2023-04-04T11:05:37.648Z,6.90
2023-04-04T11:08:10.850Z,4.80
2023-04-04T11:10:45.952Z,4.53
2023-04-04T11:13:22.234Z,4.53
2023-04-04T11:15:59.975Z,5.05
2023-04-04T11:18:49.504Z,5.70
2023-04-04T11:21:24.280Z,4.47
2023-04-04T11:24:27.141Z,5.30
2023-04-04T11:27:01.251Z,6.18
2023-04-04T11:29:53.530Z,6.78
2023-04-04T11:32:50.153Z,6.22
2023-04-04T11:35:23.582Z,5.18
2023-04-04T11:38:04.097Z,7.15
2023-04-04T11:40:45.449Z,5.40
2023-04-04T11:43:20.485Z,6.53
2023-04-04T11:45:51.117Z,5.63
2023-04-04T11:48:23.951Z,7.15
2023-04-04T11:50:56.099Z,6.80
2023-04-04T11:53:26.509Z,4.07
2023-04-04T11:55:56.847Z,5.75
2023-04-04T11:58:30.336Z,6.68
2023-04-04T12:01:00.793Z,7.30
2023-04-04T12:03:32.678Z,8.00
2023-04-04T12:06:04.608Z,5.75
2023-04-04T12:08:35.140Z,4.85
2023-04-04T12:11:11.016Z,6.28
2023-04-04T12:13:48.830Z,4.50
2023-04-04T12:16:22.300Z,4.40
2023-04-04T12:18:53.999Z,5.35
2023-04-04T12:21:24.397Z,4.68
2023-04-04T12:23:54.766Z,4.93
2023-04-04T12:26:29.941Z,4.35
2023-04-04T12:29:03.237Z,5.40
2023-04-04T12:31:34.146Z,7.03
2023-04-04T12:34:04.967Z,7.15
2023-04-04T12:36:35.852Z,6.45
2023-04-04T12:39:09.830Z,4.22
2023-04-04T12:41:51.425Z,6.50
2023-04-04T12:44:33.873Z,5.82
2023-04-04T12:47:06.945Z,3.85
2023-04-04T12:49:42.984Z,5.55
2023-04-04T12:52:22.634Z,6.95
2023-04-04T12:55:06.829Z,6.22
2023-04-04T12:57:38.772Z,4.60
2023-04-04T13:00:14.209Z,5.95
2023-04-04T13:02:49.513Z,6.15
2023-04-04T13:05:22.282Z,4.22
2023-04-04T13:07:52.871Z,5.32
2023-04-04T13:10:23.277Z,5.88
2023-04-04T13:13:01.282Z,5.50
2023-04-04T13:15:55.681Z,5.13
2023-04-04T13:18:27.741Z,4.53
2023-04-04T13:20:58.577Z,4.22
2023-04-04T13:23:28.965Z,6.13
2023-04-04T13:25:59.996Z,6.28
2023-04-04T13:28:30.367Z,6.60
2023-04-04T13:31:05.792Z,4.88
2023-04-04T13:33:36.908Z,6.63
2023-04-04T13:36:07.966Z,6.47
2023-04-04T13:38:38.354Z,5.88
2023-04-04T13:41:08.777Z,6.50
2023-04-04T13:43:39.088Z,4.53
2023-04-04T13:46:12.098Z,3.50
2023-04-04T13:48:42.492Z,5.18
2023-04-04T13:51:12.841Z,3.75
2023-04-04T13:53:45.245Z,5.25
2023-04-04T13:56:18.722Z,3.28
2023-04-04T13:58:50.395Z,6.90
2023-04-04T14:01:24.816Z,6.95
2023-04-04T14:03:55.361Z,3.17
2023-04-04T14:06:25.772Z,5.47
2023-04-04T14:08:56.519Z,3.30
2023-04-04T14:11:31.174Z,5.30
2023-04-04T14:14:01.519Z,5.45
2023-04-04T14:16:34.524Z,4.13
2023-04-04T14:19:05.109Z,4.75
2023-04-04T14:21:35.875Z,5.45
2023-04-04T14:24:07.655Z,4.22
2023-04-04T14:26:37.929Z,5.47
2023-04-04T14:29:08.430Z,6.00
2023-04-04T14:31:41.642Z,4.55
2023-04-04T14:34:12.176Z,4.18
2023-04-04T14:36:42.516Z,4.80
2023-04-04T14:39:13.041Z,5.55
2023-04-04T14:41:43.452Z,5.43
2023-04-04T14:44:14.423Z,4.38
2023-04-04T14:46:47.459Z,6.40
2023-04-04T14:49:18.156Z,4.38
2023-04-04T14:51:48.570Z,5.00
2023-04-04T14:54:19.122Z,3.90
2023-04-04T14:56:49.868Z,6.07
2023-04-04T14:59:20.112Z,4.03
2023-04-04T15:01:53.029Z,5.18
2023-04-04T15:04:23.351Z,6.00
2023-04-04T15:06:53.728Z,6.28
2023-04-04T15:09:24.686Z,4.13
2023-04-04T15:11:54.989Z,5.22
2023-04-04T15:14:25.528Z,3.90
2023-04-04T15:16:58.647Z,4.78
2023-04-04T15:19:28.963Z,6.32
2023-04-04T15:21:59.917Z,4.70
2023-04-04T15:24:30.144Z,5.80
2023-04-04T15:27:00.461Z,4.10
2023-04-04T15:29:30.886Z,6.47
2023-04-04T15:32:03.832Z,6.05
2023-04-04T15:34:34.144Z,4.25
2023-04-04T15:37:04.847Z,6.20
2023-04-04T15:39:46.046Z,6.40
2023-04-04T15:42:22.380Z,5.30
2023-04-04T15:44:52.831Z,8.57
2023-04-04T15:47:25.769Z,6.13
2023-04-04T15:49:56.118Z,5.32
2023-04-04T15:52:26.958Z,6.05
2023-04-04T15:54:57.276Z,5.65
2023-04-04T15:57:27.530Z,5.78
2023-04-04T15:59:57.914Z,4.75
2023-04-04T16:02:32.107Z,4.90
2023-04-04T16:05:02.564Z,5.40
2023-04-04T16:07:32.851Z,6.32
2023-04-04T16:10:03.816Z,4.38
2023-04-04T16:12:34.159Z,7.00
2023-04-04T16:15:05.530Z,7.00
2023-04-04T16:17:38.510Z,6.45
2023-04-04T16:20:10.128Z,5.80
2023-04-04T16:22:40.401Z,4.70
2023-04-04T16:25:11.916Z,7.00
2023-04-04T16:27:42.237Z,7.25
2023-04-04T16:30:14.222Z,6.43
2023-04-04T16:32:47.376Z,6.55
2023-04-04T16:35:17.874Z,6.53
2023-04-04T16:37:48.210Z,6.05
2023-04-04T16:40:18.613Z,6.15
2023-04-04T16:42:48.963Z,5.18
2023-04-04T16:45:19.289Z,7.88
2023-04-04T16:47:52.207Z,6.45
2023-04-04T16:50:22.722Z,5.72
2023-04-04T16:52:53.044Z,5.63
2023-04-04T16:55:26.397Z,4.72
2023-04-04T16:57:56.798Z,6.25
2023-04-04T17:00:27.388Z,5.72
2023-04-04T17:03:00.377Z,7.53
2023-04-04T17:05:30.890Z,6.30
2023-04-04T17:08:01.314Z,5.80
2023-04-04T17:10:31.641Z,7.25
2023-04-04T17:13:02.222Z,6.32
2023-04-04T17:15:32.701Z,7.70
2023-04-04T17:18:05.796Z,6.07
2023-04-04T17:20:36.103Z,5.18
2023-04-04T17:23:06.473Z,5.93
2023-04-04T17:25:36.788Z,7.80
2023-04-04T17:28:07.794Z,7.13
2023-04-04T17:30:38.370Z,6.68
2023-04-04T17:33:11.502Z,5.80
2023-04-04T17:35:41.981Z,4.68
2023-04-04T17:38:12.475Z,5.30
2023-04-04T17:40:43.180Z,5.95
2023-04-04T17:43:13.523Z,6.18
2023-04-04T17:45:45.940Z,6.32
2023-04-04T17:48:18.949Z,6.82
2023-04-04T17:50:49.324Z,7.68
2023-04-04T17:53:19.599Z,4.82
2023-04-04T17:55:51.208Z,5.40
2023-04-04T17:58:22.210Z,4.53
2023-04-04T18:00:53.028Z,6.80
2023-04-04T18:03:26.673Z,6.22
2023-04-04T18:05:57.777Z,5.95
2023-04-04T18:08:28.176Z,9.07
2023-04-04T18:11:00.956Z,10.52
2023-04-04T18:13:31.384Z,10.40
2023-04-04T18:16:02.935Z,10.15
2023-04-04T18:18:36.073Z,13.95
2023-04-04T18:21:06.793Z,10.98
2023-04-04T18:23:37.447Z,9.27
2023-04-04T18:26:08.715Z,9.32
2023-04-04T18:28:39.040Z,10.85
2023-04-04T18:31:12.285Z,12.80
2023-04-04T18:33:45.262Z,11.88
2023-04-04T18:36:15.638Z,10.32
2023-04-04T18:38:47.115Z,10.73
2023-04-04T18:41:17.969Z,12.75
2023-04-04T18:43:49.272Z,12.40
2023-04-04T18:46:19.632Z,9.98
2023-04-04T18:48:52.526Z,9.57
2023-04-04T18:51:23.837Z,12.23
2023-04-04T18:53:54.275Z,10.05
2023-04-04T18:56:24.649Z,9.80
2023-04-04T18:58:54.926Z,12.98
2023-04-04T19:01:25.584Z,13.43
2023-04-04T19:03:58.599Z,12.20
2023-04-04T19:06:30.028Z,12.38
2023-04-04T19:09:00.989Z,11.38
2023-04-04T19:11:31.324Z,12.68
2023-04-04T19:14:01.755Z,12.85
2023-04-04T19:16:32.082Z,12.18
2023-04-04T19:19:04.971Z,11.32
2023-04-04T19:21:36.118Z,12.32
2023-04-04T19:24:07.851Z,10.45
2023-04-04T19:26:38.187Z,14.77
2023-04-04T19:29:08.774Z,14.48
2023-04-04T19:31:39.576Z,11.80
2023-04-04T19:34:15.080Z,12.10
2023-04-04T19:36:45.869Z,10.70
2023-04-04T19:39:22.931Z,12.50
2023-04-04T19:41:53.709Z,12.15
2023-04-04T19:44:25.279Z,10.48
2023-04-04T19:46:59.092Z,10.75
2023-04-04T19:49:33.886Z,12.70
2023-04-04T19:52:07.232Z,12.15
2023-04-04T19:54:43.060Z,13.02
2023-04-04T19:57:20.862Z,10.55
2023-04-04T20:00:05.241Z,10.40
2023-04-04T20:02:55.447Z,10.13
2023-04-04T20:05:55.873Z,11.70
2023-04-04T20:08:49.354Z,10.43
2023-04-04T20:11:37.114Z,13.13
2023-04-04T20:14:13.333Z,11.90
2023-04-04T20:16:44.326Z,10.35
2023-04-04T20:19:15.789Z,10.65
2023-04-04T20:21:48.644Z,12.02
2023-04-04T20:24:22.773Z,11.23
2023-04-04T20:26:55.484Z,11.52
2023-04-04T20:29:28.994Z,11.35
2023-04-04T20:32:01.499Z,14.23
2023-04-04T20:34:47.094Z,12.90
2023-04-04T20:37:20.524Z,11.63
2023-04-04T20:39:57.318Z,11.45
2023-04-04T20:42:41.801Z,10.98
2023-04-04T20:45:47.873Z,11.90
2023-04-04T20:48:48.930Z,14.70
2023-04-04T20:51:28.806Z,13.43
2023-04-04T20:54:01.782Z,10.93
2023-04-04T20:56:56.841Z,12.05
2023-04-04T20:59:40.939Z,13.80
2023-04-04T21:02:17.076Z,11.85
2023-04-04T21:04:49.934Z,11.90
2023-04-04T21:07:40.860Z,11.50
2023-04-04T21:10:27.872Z,10.20
2023-04-04T21:13:02.712Z,14.05
2023-04-04T21:15:38.862Z,10.70
2023-04-04T21:18:12.779Z,11.70
2023-04-04T21:21:08.976Z,13.57
2023-04-04T21:23:47.220Z,17.27
2023-04-04T21:26:30.568Z,11.95
2023-04-04T21:29:06.439Z,16.08
2023-04-04T21:31:43.560Z,13.00
2023-04-04T21:34:17.510Z,16.27
2023-04-04T21:36:49.475Z,14.88
2023-04-04T21:39:25.859Z,13.55
2023-04-04T21:41:58.881Z,46.92
2023-04-04T21:44:34.055Z,31.35
2023-04-04T21:47:04.837Z,23.88
2023-04-04T21:49:35.621Z,21.30
2023-04-04T21:52:06.474Z,19.70
2023-04-04T21:54:37.316Z,20.13
2023-04-04T21:57:08.081Z,16.75
2023-04-04T21:59:41.079Z,17.30
2023-04-04T22:02:11.959Z,17.17
2023-04-04T22:04:42.918Z,16.10
2023-04-04T22:07:13.730Z,15.52
2023-04-04T22:09:44.532Z,15.20
2023-04-04T22:12:16.531Z,14.50
2023-04-04T22:14:51.577Z,17.83
2023-04-04T22:17:23.943Z,19.75
2023-04-04T22:19:59.341Z,16.13
2023-04-04T22:22:31.265Z,13.05
2023-04-04T22:25:05.296Z,13.93
2023-04-04T22:27:38.270Z,17.75
2023-04-04T22:30:12.775Z,18.42
2023-04-04T22:32:44.372Z,19.40
2023-04-04T22:35:15.548Z,15.10
2023-04-04T22:37:46.396Z,15.57
2023-04-04T22:40:17.664Z,15.88
2023-04-04T22:42:48.498Z,20.58
2023-04-04T22:45:22.022Z,21.77
2023-04-04T22:47:52.893Z,16.85
2023-04-04T22:50:27.013Z,22.13
2023-04-04T22:52:58.956Z,21.33
2023-04-04T22:55:30.687Z,14.88
2023-04-04T22:58:01.516Z,16.65
2023-04-04T23:00:35.012Z,16.95
2023-04-04T23:03:06.575Z,15.93
2023-04-04T23:05:37.499Z,15.18
2023-04-04T23:08:08.700Z,19.30
2023-04-04T23:10:39.965Z,16.27
2023-04-04T23:13:11.139Z,14.88
2023-04-04T23:15:45.418Z,15.68
2023-04-04T23:18:16.428Z,13.70
2023-04-04T23:20:47.704Z,18.65
2023-04-04T23:23:18.456Z,20.63
2023-04-04T23:25:49.316Z,15.73
2023-04-04T23:28:20.110Z,19.02
2023-04-04T23:30:54.996Z,14.98
2023-04-04T23:33:25.956Z,15.80
2023-04-04T23:35:57.018Z,14.02
2023-04-04T23:38:27.919Z,15.10
2023-04-04T23:40:59.205Z,16.85
2023-04-04T23:43:29.990Z,12.70
2023-04-04T23:46:03.667Z,13.60
2023-04-04T23:48:35.216Z,10.80
2023-04-04T23:51:06.235Z,12.73
2023-04-04T23:53:37.063Z,14.80
2023-04-04T23:56:08.302Z,12.93
2023-04-04T23:58:40.936Z,12.23
